sensor_id;sensor_type;location;lat;lon;timestamp;P1;durP1;ratioP1;P2;durP2;ratioP2
20671;SDS011;10495;50.922;4.760;2022-07-21T00:01:18;11.30;;;9.37;;
20671;SDS011;10495;50.922;4.760;2022-07-21T00:03:44;12.43;;;9.87;;
20671;SDS011;10495;50.922;4.760;2022-07-21T00:06:09;11.85;;;9.95;;
20671;SDS011;10495;50.922;4.760;2022-07-21T00:08:35;12.70;;;9.53;;
20671;SDS011;10495;50.922;4.760;2022-07-21T00:11:00;9.93;;;8.32;;
20671;SDS011;10495;50.922;4.760;2022-07-21T00:13:26;9.33;;;8.37;;
20671;SDS011;10495;50.922;4.760;2022-07-21T00:15:52;10.63;;;9.30;;
20671;SDS011;10495;50.922;4.760;2022-07-21T00:18:18;10.87;;;9.43;;
20671;SDS011;10495;50.922;4.760;2022-07-21T00:20:45;11.87;;;9.47;;
20671;SDS011;10495;50.922;4.760;2022-07-21T00:23:11;11.03;;;8.73;;
20671;SDS011;10495;50.922;4.760;2022-07-21T00:25:36;10.07;;;9.00;;
20671;SDS011;10495;50.922;4.760;2022-07-21T00:28:03;9.87;;;8.47;;
20671;SDS011;10495;50.922;4.760;2022-07-21T00:30:29;10.37;;;8.97;;
20671;SDS011;10495;50.922;4.760;2022-07-21T00:32:55;10.80;;;8.70;;
20671;SDS011;10495;50.922;4.760;2022-07-21T00:35:21;14.40;;;10.00;;
20671;SDS011;10495;50.922;4.760;2022-07-21T00:37:47;9.00;;;8.10;;
20671;SDS011;10495;50.922;4.760;2022-07-21T00:40:13;11.77;;;10.10;;
20671;SDS011;10495;50.922;4.760;2022-07-21T00:42:40;10.97;;;9.73;;
20671;SDS011;10495;50.922;4.760;2022-07-21T00:45:07;12.07;;;9.30;;
20671;SDS011;10495;50.922;4.760;2022-07-21T00:47:34;10.80;;;9.32;;
20671;SDS011;10495;50.922;4.760;2022-07-21T00:50:01;10.90;;;9.73;;
20671;SDS011;10495;50.922;4.760;2022-07-21T00:52:32;11.60;;;9.27;;
20671;SDS011;10495;50.922;4.760;2022-07-21T00:54:58;10.43;;;9.27;;
20671;SDS011;10495;50.922;4.760;2022-07-21T00:57:24;12.90;;;8.45;;
20671;SDS011;10495;50.922;4.760;2022-07-21T00:59:50;12.53;;;9.43;;
20671;SDS011;10495;50.922;4.760;2022-07-21T01:02:16;13.80;;;9.70;;
20671;SDS011;10495;50.922;4.760;2022-07-21T01:04:42;12.10;;;9.33;;
20671;SDS011;10495;50.922;4.760;2022-07-21T01:07:07;12.13;;;10.53;;
20671;SDS011;10495;50.922;4.760;2022-07-21T01:09:33;12.17;;;9.87;;
20671;SDS011;10495;50.922;4.760;2022-07-21T01:12:00;11.97;;;10.70;;
20671;SDS011;10495;50.922;4.760;2022-07-21T01:14:26;13.13;;;10.37;;
20671;SDS011;10495;50.922;4.760;2022-07-21T01:16:53;11.30;;;10.20;;
20671;SDS011;10495;50.922;4.760;2022-07-21T01:19:19;15.40;;;11.97;;
20671;SDS011;10495;50.922;4.760;2022-07-21T01:21:46;10.97;;;9.30;;
20671;SDS011;10495;50.922;4.760;2022-07-21T01:24:13;14.70;;;11.73;;
20671;SDS011;10495;50.922;4.760;2022-07-21T01:26:40;16.50;;;10.85;;
20671;SDS011;10495;50.922;4.760;2022-07-21T01:29:14;14.03;;;11.27;;
20671;SDS011;10495;50.922;4.760;2022-07-21T01:31:40;12.50;;;10.05;;
20671;SDS011;10495;50.922;4.760;2022-07-21T01:34:08;11.60;;;10.18;;
20671;SDS011;10495;50.922;4.760;2022-07-21T01:36:34;13.00;;;10.27;;
20671;SDS011;10495;50.922;4.760;2022-07-21T01:39:00;13.30;;;10.87;;
20671;SDS011;10495;50.922;4.760;2022-07-21T01:41:45;12.17;;;9.87;;
20671;SDS011;10495;50.922;4.760;2022-07-21T01:44:12;10.70;;;9.63;;
20671;SDS011;10495;50.922;4.760;2022-07-21T01:46:39;10.27;;;9.20;;
20671;SDS011;10495;50.922;4.760;2022-07-21T01:49:07;11.00;;;9.50;;
20671;SDS011;10495;50.922;4.760;2022-07-21T01:51:33;13.57;;;10.33;;
20671;SDS011;10495;50.922;4.760;2022-07-21T01:53:59;11.45;;;9.88;;
20671;SDS011;10495;50.922;4.760;2022-07-21T01:56:25;12.60;;;9.90;;
20671;SDS011;10495;50.922;4.760;2022-07-21T01:58:53;9.60;;;8.70;;
20671;SDS011;10495;50.922;4.760;2022-07-21T02:01:20;9.93;;;8.37;;
20671;SDS011;10495;50.922;4.760;2022-07-21T02:03:47;14.30;;;10.73;;
20671;SDS011;10495;50.922;4.760;2022-07-21T02:06:14;9.63;;;8.13;;
20671;SDS011;10495;50.922;4.760;2022-07-21T02:08:40;12.63;;;10.82;;
20671;SDS011;10495;50.922;4.760;2022-07-21T02:11:07;10.65;;;9.15;;
20671;SDS011;10495;50.922;4.760;2022-07-21T02:13:33;12.65;;;9.02;;
20671;SDS011;10495;50.922;4.760;2022-07-21T02:15:59;9.45;;;8.50;;
20671;SDS011;10495;50.922;4.760;2022-07-21T02:18:25;11.05;;;9.75;;
20671;SDS011;10495;50.922;4.760;2022-07-21T02:20:50;11.60;;;9.77;;
20671;SDS011;10495;50.922;4.760;2022-07-21T02:23:16;11.90;;;9.02;;
20671;SDS011;10495;50.922;4.760;2022-07-21T02:25:42;12.47;;;9.67;;
20671;SDS011;10495;50.922;4.760;2022-07-21T02:28:08;10.80;;;9.45;;
20671;SDS011;10495;50.922;4.760;2022-07-21T02:30:35;11.10;;;8.70;;
20671;SDS011;10495;50.922;4.760;2022-07-21T02:33:00;12.43;;;9.77;;
20671;SDS011;10495;50.922;4.760;2022-07-21T02:35:26;15.37;;;9.83;;
20671;SDS011;10495;50.922;4.760;2022-07-21T02:37:52;11.63;;;9.07;;
20671;SDS011;10495;50.922;4.760;2022-07-21T02:40:18;9.40;;;8.20;;
20671;SDS011;10495;50.922;4.760;2022-07-21T02:42:43;11.80;;;9.27;;
20671;SDS011;10495;50.922;4.760;2022-07-21T02:45:09;11.40;;;9.10;;
20671;SDS011;10495;50.922;4.760;2022-07-21T02:50:22;12.30;;;10.13;;
20671;SDS011;10495;50.922;4.760;2022-07-21T02:52:49;14.20;;;9.20;;
20671;SDS011;10495;50.922;4.760;2022-07-21T02:55:18;10.90;;;9.33;;
20671;SDS011;10495;50.922;4.760;2022-07-21T02:57:44;10.33;;;9.23;;
20671;SDS011;10495;50.922;4.760;2022-07-21T03:00:10;12.93;;;9.37;;
20671;SDS011;10495;50.922;4.760;2022-07-21T03:02:36;23.03;;;10.50;;
20671;SDS011;10495;50.922;4.760;2022-07-21T03:05:02;11.90;;;10.10;;
20671;SDS011;10495;50.922;4.760;2022-07-21T03:07:29;13.77;;;10.00;;
20671;SDS011;10495;50.922;4.760;2022-07-21T03:09:54;13.15;;;9.50;;
20671;SDS011;10495;50.922;4.760;2022-07-21T03:12:20;11.10;;;9.23;;
20671;SDS011;10495;50.922;4.760;2022-07-21T03:14:46;15.33;;;10.23;;
20671;SDS011;10495;50.922;4.760;2022-07-21T03:17:11;13.60;;;10.60;;
20671;SDS011;10495;50.922;4.760;2022-07-21T03:19:37;14.63;;;10.43;;
20671;SDS011;10495;50.922;4.760;2022-07-21T03:22:03;13.07;;;10.23;;
20671;SDS011;10495;50.922;4.760;2022-07-21T03:24:28;15.10;;;11.73;;
20671;SDS011;10495;50.922;4.760;2022-07-21T03:26:55;11.40;;;10.10;;
20671;SDS011;10495;50.922;4.760;2022-07-21T03:29:21;16.00;;;10.93;;
20671;SDS011;10495;50.922;4.760;2022-07-21T03:31:46;12.23;;;9.73;;
20671;SDS011;10495;50.922;4.760;2022-07-21T03:34:12;12.10;;;9.37;;
20671;SDS011;10495;50.922;4.760;2022-07-21T03:36:38;12.63;;;9.90;;
20671;SDS011;10495;50.922;4.760;2022-07-21T03:39:03;10.83;;;9.37;;
20671;SDS011;10495;50.922;4.760;2022-07-21T03:41:29;15.18;;;10.85;;
20671;SDS011;10495;50.922;4.760;2022-07-21T03:43:55;12.30;;;10.00;;
20671;SDS011;10495;50.922;4.760;2022-07-21T03:46:21;14.30;;;10.40;;
20671;SDS011;10495;50.922;4.760;2022-07-21T03:48:47;12.40;;;9.60;;
20671;SDS011;10495;50.922;4.760;2022-07-21T03:51:12;11.33;;;8.93;;
20671;SDS011;10495;50.922;4.760;2022-07-21T03:53:38;12.53;;;9.70;;
20671;SDS011;10495;50.922;4.760;2022-07-21T03:56:04;12.13;;;9.37;;
20671;SDS011;10495;50.922;4.760;2022-07-21T03:58:30;11.90;;;9.07;;
20671;SDS011;10495;50.922;4.760;2022-07-21T04:00:55;12.53;;;8.50;;
20671;SDS011;10495;50.922;4.760;2022-07-21T04:03:21;10.73;;;9.00;;
20671;SDS011;10495;50.922;4.760;2022-07-21T04:05:46;9.82;;;7.85;;
20671;SDS011;10495;50.922;4.760;2022-07-21T04:08:12;10.67;;;8.60;;
20671;SDS011;10495;50.922;4.760;2022-07-21T04:10:39;12.03;;;9.83;;
20671;SDS011;10495;50.922;4.760;2022-07-21T04:13:08;11.25;;;8.88;;
20671;SDS011;10495;50.922;4.760;2022-07-21T04:15:35;10.68;;;9.10;;
20671;SDS011;10495;50.922;4.760;2022-07-21T04:18:01;10.82;;;8.05;;
20671;SDS011;10495;50.922;4.760;2022-07-21T04:20:28;13.87;;;10.90;;
20671;SDS011;10495;50.922;4.760;2022-07-21T04:22:53;12.23;;;8.50;;
20671;SDS011;10495;50.922;4.760;2022-07-21T04:25:20;12.73;;;9.67;;
20671;SDS011;10495;50.922;4.760;2022-07-21T04:27:46;9.88;;;8.75;;
20671;SDS011;10495;50.922;4.760;2022-07-21T04:30:14;13.07;;;10.10;;
20671;SDS011;10495;50.922;4.760;2022-07-21T04:32:41;12.17;;;8.83;;
20671;SDS011;10495;50.922;4.760;2022-07-21T04:35:08;11.25;;;7.90;;
20671;SDS011;10495;50.922;4.760;2022-07-21T04:37:34;13.50;;;9.20;;
20671;SDS011;10495;50.922;4.760;2022-07-21T04:40:00;11.77;;;8.77;;
20671;SDS011;10495;50.922;4.760;2022-07-21T04:42:27;13.43;;;8.65;;
20671;SDS011;10495;50.922;4.760;2022-07-21T04:44:53;11.23;;;9.32;;
20671;SDS011;10495;50.922;4.760;2022-07-21T04:47:18;15.00;;;10.37;;
20671;SDS011;10495;50.922;4.760;2022-07-21T04:49:44;15.90;;;9.73;;
20671;SDS011;10495;50.922;4.760;2022-07-21T04:52:10;15.60;;;9.07;;
20671;SDS011;10495;50.922;4.760;2022-07-21T04:54:35;11.55;;;9.45;;
20671;SDS011;10495;50.922;4.760;2022-07-21T04:57:01;12.07;;;8.67;;
20671;SDS011;10495;50.922;4.760;2022-07-21T04:59:31;12.33;;;9.30;;
20671;SDS011;10495;50.922;4.760;2022-07-21T05:01:57;14.23;;;9.10;;
20671;SDS011;10495;50.922;4.760;2022-07-21T05:04:24;12.52;;;8.68;;
20671;SDS011;10495;50.922;4.760;2022-07-21T05:06:50;12.30;;;8.47;;
20671;SDS011;10495;50.922;4.760;2022-07-21T05:09:15;10.93;;;8.65;;
20671;SDS011;10495;50.922;4.760;2022-07-21T05:11:41;18.83;;;9.17;;
20671;SDS011;10495;50.922;4.760;2022-07-21T05:14:07;15.27;;;9.73;;
20671;SDS011;10495;50.922;4.760;2022-07-21T05:16:33;16.08;;;8.55;;
20671;SDS011;10495;50.922;4.760;2022-07-21T05:18:59;15.30;;;10.17;;
20671;SDS011;10495;50.922;4.760;2022-07-21T05:21:25;11.85;;;9.27;;
20671;SDS011;10495;50.922;4.760;2022-07-21T05:23:50;16.73;;;9.53;;
20671;SDS011;10495;50.922;4.760;2022-07-21T05:26:16;10.30;;;8.70;;
20671;SDS011;10495;50.922;4.760;2022-07-21T05:28:41;14.85;;;9.82;;
20671;SDS011;10495;50.922;4.760;2022-07-21T05:31:08;12.60;;;9.65;;
20671;SDS011;10495;50.922;4.760;2022-07-21T05:36:02;10.67;;;8.93;;
20671;SDS011;10495;50.922;4.760;2022-07-21T05:38:31;15.03;;;11.23;;
20671;SDS011;10495;50.922;4.760;2022-07-21T05:40:57;16.43;;;10.13;;
20671;SDS011;10495;50.922;4.760;2022-07-21T05:43:28;17.73;;;11.03;;
20671;SDS011;10495;50.922;4.760;2022-07-21T05:45:54;13.73;;;10.17;;
20671;SDS011;10495;50.922;4.760;2022-07-21T05:48:20;18.08;;;12.05;;
20671;SDS011;10495;50.922;4.760;2022-07-21T05:50:46;16.03;;;11.60;;
20671;SDS011;10495;50.922;4.760;2022-07-21T05:53:12;18.60;;;11.63;;
20671;SDS011;10495;50.922;4.760;2022-07-21T05:55:37;22.33;;;12.80;;
20671;SDS011;10495;50.922;4.760;2022-07-21T05:58:03;19.77;;;12.20;;
20671;SDS011;10495;50.922;4.760;2022-07-21T06:00:28;23.10;;;13.10;;
20671;SDS011;10495;50.922;4.760;2022-07-21T06:02:54;14.90;;;10.77;;
20671;SDS011;10495;50.922;4.760;2022-07-21T06:05:20;16.83;;;11.15;;
20671;SDS011;10495;50.922;4.760;2022-07-21T06:07:45;12.17;;;9.57;;
20671;SDS011;10495;50.922;4.760;2022-07-21T06:10:13;16.80;;;11.57;;
20671;SDS011;10495;50.922;4.760;2022-07-21T06:12:39;15.83;;;11.13;;
20671;SDS011;10495;50.922;4.760;2022-07-21T06:15:05;16.87;;;12.10;;
20671;SDS011;10495;50.922;4.760;2022-07-21T06:17:37;14.50;;;10.63;;
20671;SDS011;10495;50.922;4.760;2022-07-21T06:20:05;15.70;;;10.77;;
20671;SDS011;10495;50.922;4.760;2022-07-21T06:22:32;16.58;;;9.70;;
20671;SDS011;10495;50.922;4.760;2022-07-21T06:24:57;15.33;;;9.17;;
20671;SDS011;10495;50.922;4.760;2022-07-21T06:27:23;15.00;;;10.98;;
20671;SDS011;10495;50.922;4.760;2022-07-21T06:29:48;14.25;;;11.40;;
20671;SDS011;10495;50.922;4.760;2022-07-21T06:32:14;18.93;;;12.07;;
20671;SDS011;10495;50.922;4.760;2022-07-21T06:34:39;13.13;;;9.90;;
20671;SDS011;10495;50.922;4.760;2022-07-21T06:37:05;19.35;;;12.57;;
20671;SDS011;10495;50.922;4.760;2022-07-21T06:39:31;12.40;;;10.10;;
20671;SDS011;10495;50.922;4.760;2022-07-21T06:41:56;13.77;;;10.65;;
20671;SDS011;10495;50.922;4.760;2022-07-21T06:44:22;16.83;;;11.75;;
20671;SDS011;10495;50.922;4.760;2022-07-21T06:46:50;14.55;;;11.23;;
20671;SDS011;10495;50.922;4.760;2022-07-21T06:49:15;21.65;;;11.15;;
20671;SDS011;10495;50.922;4.760;2022-07-21T06:51:41;11.30;;;10.07;;
20671;SDS011;10495;50.922;4.760;2022-07-21T06:54:07;15.63;;;11.07;;
20671;SDS011;10495;50.922;4.760;2022-07-21T06:56:32;14.63;;;11.50;;
20671;SDS011;10495;50.922;4.760;2022-07-21T06:58:58;12.65;;;10.45;;
20671;SDS011;10495;50.922;4.760;2022-07-21T07:01:24;16.90;;;11.97;;
20671;SDS011;10495;50.922;4.760;2022-07-21T07:03:49;17.07;;;12.20;;
20671;SDS011;10495;50.922;4.760;2022-07-21T07:06:15;15.57;;;12.10;;
20671;SDS011;10495;50.922;4.760;2022-07-21T07:08:41;15.63;;;11.60;;
20671;SDS011;10495;50.922;4.760;2022-07-21T07:11:06;16.13;;;11.45;;
20671;SDS011;10495;50.922;4.760;2022-07-21T07:13:32;17.60;;;12.43;;
20671;SDS011;10495;50.922;4.760;2022-07-21T07:15:58;15.30;;;11.73;;
20671;SDS011;10495;50.922;4.760;2022-07-21T07:18:23;17.03;;;13.10;;
20671;SDS011;10495;50.922;4.760;2022-07-21T07:20:50;17.00;;;11.63;;
20671;SDS011;10495;50.922;4.760;2022-07-21T07:23:16;19.53;;;12.73;;
20671;SDS011;10495;50.922;4.760;2022-07-21T07:25:42;17.67;;;11.57;;
20671;SDS011;10495;50.922;4.760;2022-07-21T07:28:08;15.57;;;10.90;;
20671;SDS011;10495;50.922;4.760;2022-07-21T07:30:34;16.90;;;11.37;;
20671;SDS011;10495;50.922;4.760;2022-07-21T07:33:00;18.50;;;12.13;;
20671;SDS011;10495;50.922;4.760;2022-07-21T07:35:26;21.47;;;12.87;;
20671;SDS011;10495;50.922;4.760;2022-07-21T07:37:51;15.50;;;11.10;;
20671;SDS011;10495;50.922;4.760;2022-07-21T07:40:18;14.37;;;9.83;;
20671;SDS011;10495;50.922;4.760;2022-07-21T07:42:45;17.33;;;10.90;;
20671;SDS011;10495;50.922;4.760;2022-07-21T07:45:12;19.70;;;11.37;;
20671;SDS011;10495;50.922;4.760;2022-07-21T07:47:38;12.87;;;10.63;;
20671;SDS011;10495;50.922;4.760;2022-07-21T07:50:05;13.60;;;9.63;;
20671;SDS011;10495;50.922;4.760;2022-07-21T07:52:33;14.13;;;9.57;;
20671;SDS011;10495;50.922;4.760;2022-07-21T07:54:59;14.95;;;10.65;;
20671;SDS011;10495;50.922;4.760;2022-07-21T07:57:28;14.48;;;9.25;;
20671;SDS011;10495;50.922;4.760;2022-07-21T07:59:54;12.57;;;8.88;;
20671;SDS011;10495;50.922;4.760;2022-07-21T08:02:20;16.30;;;11.03;;
20671;SDS011;10495;50.922;4.760;2022-07-21T08:04:45;25.20;;;13.80;;
20671;SDS011;10495;50.922;4.760;2022-07-21T08:07:11;19.83;;;14.73;;
20671;SDS011;10495;50.922;4.760;2022-07-21T08:09:36;21.95;;;13.65;;
20671;SDS011;10495;50.922;4.760;2022-07-21T08:12:04;23.27;;;15.47;;
20671;SDS011;10495;50.922;4.760;2022-07-21T08:14:29;23.88;;;16.65;;
20671;SDS011;10495;50.922;4.760;2022-07-21T08:16:55;27.08;;;16.77;;
20671;SDS011;10495;50.922;4.760;2022-07-21T08:19:23;21.90;;;15.07;;
20671;SDS011;10495;50.922;4.760;2022-07-21T08:21:49;30.70;;;18.77;;
20671;SDS011;10495;50.922;4.760;2022-07-21T08:24:15;26.57;;;17.50;;
20671;SDS011;10495;50.922;4.760;2022-07-21T08:26:41;26.87;;;18.30;;
20671;SDS011;10495;50.922;4.760;2022-07-21T08:29:06;20.07;;;14.27;;
20671;SDS011;10495;50.922;4.760;2022-07-21T08:31:32;31.23;;;19.60;;
20671;SDS011;10495;50.922;4.760;2022-07-21T08:33:58;28.97;;;18.40;;
20671;SDS011;10495;50.922;4.760;2022-07-21T08:36:23;29.07;;;17.30;;
20671;SDS011;10495;50.922;4.760;2022-07-21T08:38:49;25.98;;;18.50;;
20671;SDS011;10495;50.922;4.760;2022-07-21T08:41:14;25.33;;;16.53;;
20671;SDS011;10495;50.922;4.760;2022-07-21T08:43:40;23.20;;;15.27;;
20671;SDS011;10495;50.922;4.760;2022-07-21T08:46:06;21.77;;;14.87;;
20671;SDS011;10495;50.922;4.760;2022-07-21T08:48:32;20.00;;;14.07;;
20671;SDS011;10495;50.922;4.760;2022-07-21T08:50:58;25.43;;;16.23;;
20671;SDS011;10495;50.922;4.760;2022-07-21T08:53:24;23.13;;;15.97;;
20671;SDS011;10495;50.922;4.760;2022-07-21T08:55:50;27.90;;;17.57;;
20671;SDS011;10495;50.922;4.760;2022-07-21T08:58:16;27.47;;;16.83;;
20671;SDS011;10495;50.922;4.760;2022-07-21T09:00:43;26.43;;;17.03;;
20671;SDS011;10495;50.922;4.760;2022-07-21T09:03:23;21.53;;;15.57;;
20671;SDS011;10495;50.922;4.760;2022-07-21T09:05:59;25.33;;;16.87;;
20671;SDS011;10495;50.922;4.760;2022-07-21T09:08:33;25.42;;;16.23;;
20671;SDS011;10495;50.922;4.760;2022-07-21T09:14:07;22.07;;;14.67;;
20671;SDS011;10495;50.922;4.760;2022-07-21T09:16:42;21.88;;;15.77;;
20671;SDS011;10495;50.922;4.760;2022-07-21T09:19:43;19.35;;;13.82;;
20671;SDS011;10495;50.922;4.760;2022-07-21T09:22:04;21.25;;;14.35;;
20671;SDS011;10495;50.922;4.760;2022-07-21T09:24:33;17.03;;;13.13;;
20671;SDS011;10495;50.922;4.760;2022-07-21T09:29:36;23.93;;;13.67;;
20671;SDS011;10495;50.922;4.760;2022-07-21T09:37:29;21.00;;;12.68;;
20671;SDS011;10495;50.922;4.760;2022-07-21T09:39:56;15.70;;;12.10;;
20671;SDS011;10495;50.922;4.760;2022-07-21T09:44:54;14.57;;;11.73;;
20671;SDS011;10495;50.922;4.760;2022-07-21T09:47:22;15.67;;;11.10;;
20671;SDS011;10495;50.922;4.760;2022-07-21T09:49:50;11.70;;;9.67;;
20671;SDS011;10495;50.922;4.760;2022-07-21T09:52:20;13.97;;;9.67;;
20671;SDS011;10495;50.922;4.760;2022-07-21T09:54:55;10.97;;;8.53;;
20671;SDS011;10495;50.922;4.760;2022-07-21T09:57:25;13.13;;;9.33;;
20671;SDS011;10495;50.922;4.760;2022-07-21T09:59:51;11.80;;;8.67;;
20671;SDS011;10495;50.922;4.760;2022-07-21T10:02:19;13.67;;;8.20;;
20671;SDS011;10495;50.922;4.760;2022-07-21T10:04:45;9.53;;;7.17;;
20671;SDS011;10495;50.922;4.760;2022-07-21T10:07:13;10.33;;;7.67;;
20671;SDS011;10495;50.922;4.760;2022-07-21T10:09:40;9.23;;;7.18;;
20671;SDS011;10495;50.922;4.760;2022-07-21T10:12:07;10.17;;;7.67;;
20671;SDS011;10495;50.922;4.760;2022-07-21T10:14:34;9.87;;;7.70;;
20671;SDS011;10495;50.922;4.760;2022-07-21T10:17:00;10.95;;;7.35;;
20671;SDS011;10495;50.922;4.760;2022-07-21T10:19:31;8.73;;;6.23;;
20671;SDS011;10495;50.922;4.760;2022-07-21T10:22:35;6.55;;;5.78;;
20671;SDS011;10495;50.922;4.760;2022-07-21T10:25:17;7.10;;;5.83;;
20671;SDS011;10495;50.922;4.760;2022-07-21T10:33:11;8.13;;;6.53;;
20671;SDS011;10495;50.922;4.760;2022-07-21T10:35:42;10.60;;;6.87;;
20671;SDS011;10495;50.922;4.760;2022-07-21T10:38:25;10.33;;;7.47;;
20671;SDS011;10495;50.922;4.760;2022-07-21T10:40:52;8.97;;;6.23;;
20671;SDS011;10495;50.922;4.760;2022-07-21T10:45:50;10.30;;;7.33;;
20671;SDS011;10495;50.922;4.760;2022-07-21T10:51:15;9.40;;;7.23;;
20671;SDS011;10495;50.922;4.760;2022-07-21T10:53:41;12.67;;;7.63;;
20671;SDS011;10495;50.922;4.760;2022-07-21T10:56:09;8.20;;;7.30;;
20671;SDS011;10495;50.922;4.760;2022-07-21T10:58:51;12.03;;;7.50;;
20671;SDS011;10495;50.922;4.760;2022-07-21T11:03:43;9.87;;;7.10;;
20671;SDS011;10495;50.922;4.760;2022-07-21T11:06:22;9.95;;;7.10;;
20671;SDS011;10495;50.922;4.760;2022-07-21T11:11:27;9.57;;;6.70;;
20671;SDS011;10495;50.922;4.760;2022-07-21T11:22:35;9.25;;;6.53;;
20671;SDS011;10495;50.922;4.760;2022-07-21T11:25:03;9.57;;;5.97;;
20671;SDS011;10495;50.922;4.760;2022-07-21T11:27:34;7.38;;;5.78;;
20671;SDS011;10495;50.922;4.760;2022-07-21T11:30:03;10.25;;;5.93;;
20671;SDS011;10495;50.922;4.760;2022-07-21T11:32:30;9.07;;;6.43;;
20671;SDS011;10495;50.922;4.760;2022-07-21T11:35:00;10.45;;;7.05;;
20671;SDS011;10495;50.922;4.760;2022-07-21T11:39:53;10.02;;;6.28;;
20671;SDS011;10495;50.922;4.760;2022-07-21T11:42:19;9.57;;;6.40;;
20671;SDS011;10495;50.922;4.760;2022-07-21T11:44:45;9.18;;;6.65;;
20671;SDS011;10495;50.922;4.760;2022-07-21T11:47:12;10.30;;;7.40;;
20671;SDS011;10495;50.922;4.760;2022-07-21T11:49:39;13.00;;;7.22;;
20671;SDS011;10495;50.922;4.760;2022-07-21T11:52:07;10.35;;;6.45;;
20671;SDS011;10495;50.922;4.760;2022-07-21T11:54:38;11.50;;;6.65;;
20671;SDS011;10495;50.922;4.760;2022-07-21T11:57:15;7.38;;;5.60;;
20671;SDS011;10495;50.922;4.760;2022-07-21T11:59:42;9.45;;;6.03;;
20671;SDS011;10495;50.922;4.760;2022-07-21T12:04:45;6.50;;;4.68;;
20671;SDS011;10495;50.922;4.760;2022-07-21T12:09:42;6.55;;;3.95;;
20671;SDS011;10495;50.922;4.760;2022-07-21T12:12:09;6.67;;;4.43;;
20671;SDS011;10495;50.922;4.760;2022-07-21T12:14:42;5.43;;;4.13;;
20671;SDS011;10495;50.922;4.760;2022-07-21T12:17:16;5.32;;;4.32;;
20671;SDS011;10495;50.922;4.760;2022-07-21T12:19:55;7.53;;;4.27;;
20671;SDS011;10495;50.922;4.760;2022-07-21T12:22:32;6.80;;;4.72;;
20671;SDS011;10495;50.922;4.760;2022-07-21T12:25:03;6.57;;;4.38;;
20671;SDS011;10495;50.922;4.760;2022-07-21T12:27:31;4.53;;;3.87;;
20671;SDS011;10495;50.922;4.760;2022-07-21T12:29:57;6.80;;;4.23;;
20671;SDS011;10495;50.922;4.760;2022-07-21T12:32:39;7.20;;;5.03;;
20671;SDS011;10495;50.922;4.760;2022-07-21T12:35:21;9.47;;;4.77;;
20671;SDS011;10495;50.922;4.760;2022-07-21T12:40:20;6.57;;;4.63;;
20671;SDS011;10495;50.922;4.760;2022-07-21T12:42:46;9.23;;;5.35;;
20671;SDS011;10495;50.922;4.760;2022-07-21T12:45:21;6.87;;;5.53;;
20671;SDS011;10495;50.922;4.760;2022-07-21T12:48:05;6.78;;;5.03;;
20671;SDS011;10495;50.922;4.760;2022-07-21T12:50:36;6.40;;;5.03;;
20671;SDS011;10495;50.922;4.760;2022-07-21T12:53:14;8.53;;;6.20;;
20671;SDS011;10495;50.922;4.760;2022-07-21T12:55:40;7.70;;;5.88;;
20671;SDS011;10495;50.922;4.760;2022-07-21T12:58:05;11.50;;;6.80;;
20671;SDS011;10495;50.922;4.760;2022-07-21T13:00:31;8.52;;;6.93;;
20671;SDS011;10495;50.922;4.760;2022-07-21T13:02:57;8.50;;;6.18;;
20671;SDS011;10495;50.922;4.760;2022-07-21T13:05:24;7.68;;;6.55;;
20671;SDS011;10495;50.922;4.760;2022-07-21T13:07:50;7.53;;;6.00;;
20671;SDS011;10495;50.922;4.760;2022-07-21T13:10:16;9.85;;;6.68;;
20671;SDS011;10495;50.922;4.760;2022-07-21T13:12:43;10.20;;;5.90;;
20671;SDS011;10495;50.922;4.760;2022-07-21T13:15:09;11.32;;;6.25;;
20671;SDS011;10495;50.922;4.760;2022-07-21T13:17:35;9.33;;;5.57;;
20671;SDS011;10495;50.922;4.760;2022-07-21T13:20:00;10.68;;;6.30;;
20671;SDS011;10495;50.922;4.760;2022-07-21T13:22:27;8.67;;;5.50;;
20671;SDS011;10495;50.922;4.760;2022-07-21T13:24:54;9.70;;;6.77;;
20671;SDS011;10495;50.922;4.760;2022-07-21T13:27:20;9.63;;;6.10;;
20671;SDS011;10495;50.922;4.760;2022-07-21T13:29:45;9.97;;;6.30;;
20671;SDS011;10495;50.922;4.760;2022-07-21T13:32:11;7.83;;;6.47;;
20671;SDS011;10495;50.922;4.760;2022-07-21T13:34:36;8.63;;;6.27;;
20671;SDS011;10495;50.922;4.760;2022-07-21T13:37:02;9.50;;;7.07;;
20671;SDS011;10495;50.922;4.760;2022-07-21T13:39:28;8.87;;;7.10;;
20671;SDS011;10495;50.922;4.760;2022-07-21T13:41:54;12.45;;;7.10;;
20671;SDS011;10495;50.922;4.760;2022-07-21T13:44:20;8.98;;;6.53;;
20671;SDS011;10495;50.922;4.760;2022-07-21T13:46:46;13.40;;;6.72;;
20671;SDS011;10495;50.922;4.760;2022-07-21T13:49:12;11.15;;;6.38;;
20671;SDS011;10495;50.922;4.760;2022-07-21T13:51:38;11.48;;;6.63;;
20671;SDS011;10495;50.922;4.760;2022-07-21T13:54:03;10.45;;;6.50;;
20671;SDS011;10495;50.922;4.760;2022-07-21T13:56:29;11.75;;;7.32;;
20671;SDS011;10495;50.922;4.760;2022-07-21T13:58:55;9.52;;;6.88;;
20671;SDS011;10495;50.922;4.760;2022-07-21T14:01:21;10.50;;;7.07;;
20671;SDS011;10495;50.922;4.760;2022-07-21T14:03:47;14.85;;;7.47;;
20671;SDS011;10495;50.922;4.760;2022-07-21T14:06:14;9.75;;;7.07;;
20671;SDS011;10495;50.922;4.760;2022-07-21T14:08:40;10.25;;;6.22;;
20671;SDS011;10495;50.922;4.760;2022-07-21T14:11:06;9.93;;;7.75;;
20671;SDS011;10495;50.922;4.760;2022-07-21T14:13:32;15.68;;;9.07;;
20671;SDS011;10495;50.922;4.760;2022-07-21T14:15:58;11.50;;;8.43;;
20671;SDS011;10495;50.922;4.760;2022-07-21T14:18:23;10.45;;;7.15;;
20671;SDS011;10495;50.922;4.760;2022-07-21T14:20:49;12.07;;;7.73;;
20671;SDS011;10495;50.922;4.760;2022-07-21T14:23:17;12.67;;;8.47;;
20671;SDS011;10495;50.922;4.760;2022-07-21T14:25:44;14.17;;;7.30;;
20671;SDS011;10495;50.922;4.760;2022-07-21T14:28:11;8.07;;;6.63;;
20671;SDS011;10495;50.922;4.760;2022-07-21T14:30:37;8.07;;;6.47;;
20671;SDS011;10495;50.922;4.760;2022-07-21T14:33:02;12.57;;;7.20;;
20671;SDS011;10495;50.922;4.760;2022-07-21T14:35:28;11.18;;;6.78;;
20671;SDS011;10495;50.922;4.760;2022-07-21T14:37:54;8.32;;;6.50;;
20671;SDS011;10495;50.922;4.760;2022-07-21T14:40:20;9.80;;;6.35;;
20671;SDS011;10495;50.922;4.760;2022-07-21T14:42:46;14.38;;;5.72;;
20671;SDS011;10495;50.922;4.760;2022-07-21T14:45:13;11.10;;;5.50;;
20671;SDS011;10495;50.922;4.760;2022-07-21T14:47:39;14.57;;;5.68;;
20671;SDS011;10495;50.922;4.760;2022-07-21T14:50:05;9.27;;;6.22;;
20671;SDS011;10495;50.922;4.760;2022-07-21T14:52:31;8.50;;;5.00;;
20671;SDS011;10495;50.922;4.760;2022-07-21T14:54:57;13.13;;;6.20;;
20671;SDS011;10495;50.922;4.760;2022-07-21T14:57:23;9.50;;;5.45;;
20671;SDS011;10495;50.922;4.760;2022-07-21T14:59:48;9.88;;;5.78;;
20671;SDS011;10495;50.922;4.760;2022-07-21T15:02:15;17.80;;;5.87;;
20671;SDS011;10495;50.922;4.760;2022-07-21T15:04:40;13.45;;;6.43;;
20671;SDS011;10495;50.922;4.760;2022-07-21T15:07:06;11.80;;;4.97;;
20671;SDS011;10495;50.922;4.760;2022-07-21T15:09:33;7.78;;;4.80;;
20671;SDS011;10495;50.922;4.760;2022-07-21T15:11:59;9.80;;;4.50;;
20671;SDS011;10495;50.922;4.760;2022-07-21T15:14:25;13.27;;;5.03;;
20671;SDS011;10495;50.922;4.760;2022-07-21T15:16:51;7.15;;;3.78;;
20671;SDS011;10495;50.922;4.760;2022-07-21T15:19:16;11.80;;;4.65;;
20671;SDS011;10495;50.922;4.760;2022-07-21T15:21:42;10.27;;;4.43;;
20671;SDS011;10495;50.922;4.760;2022-07-21T15:24:09;8.47;;;4.40;;
20671;SDS011;10495;50.922;4.760;2022-07-21T15:26:35;9.90;;;3.93;;